sensor_id;sensor_type;location;lat;lon;timestamp;P1;durP1;ratioP1;P2;durP2;ratioP2
69419;SDS011;56612;52.030;113.524;2023-05-10T00:02:45;63.45;;;27.92;;
69419;SDS011;56612;52.030;113.524;2023-05-10T00:05:48;71.00;;;29.55;;
69419;SDS011;56612;52.030;113.524;2023-05-10T00:08:52;55.63;;;29.08;;
69419;SDS011;56612;52.030;113.524;2023-05-10T00:11:56;54.27;;;28.20;;
69419;SDS011;56612;52.030;113.524;2023-05-10T00:15:01;59.53;;;26.70;;
69419;SDS011;56612;52.030;113.524;2023-05-10T00:18:06;63.88;;;28.55;;
69419;SDS011;56612;52.030;113.524;2023-05-10T00:21:10;60.40;;;26.48;;
69419;SDS011;56612;52.030;113.524;2023-05-10T00:24:13;63.97;;;28.42;;
69419;SDS011;56612;52.030;113.524;2023-05-10T00:27:17;59.47;;;27.10;;
69419;SDS011;56612;52.030;113.524;2023-05-10T00:30:20;64.23;;;27.80;;
69419;SDS011;56612;52.030;113.524;2023-05-10T00:33:24;56.90;;;29.05;;
69419;SDS011;56612;52.030;113.524;2023-05-10T00:36:28;60.20;;;28.08;;
69419;SDS011;56612;52.030;113.524;2023-05-10T00:39:32;63.13;;;28.05;;
69419;SDS011;56612;52.030;113.524;2023-05-10T00:42:36;51.73;;;26.27;;
69419;SDS011;56612;52.030;113.524;2023-05-10T00:45:41;59.90;;;26.77;;
69419;SDS011;56612;52.030;113.524;2023-05-10T00:48:45;49.15;;;26.00;;
69419;SDS011;56612;52.030;113.524;2023-05-10T00:51:49;54.20;;;29.02;;
69419;SDS011;56612;52.030;113.524;2023-05-10T00:54:54;61.95;;;28.85;;
69419;SDS011;56612;52.030;113.524;2023-05-10T00:57:59;54.20;;;28.37;;
69419;SDS011;56612;52.030;113.524;2023-05-10T01:01:03;62.73;;;29.40;;
69419;SDS011;56612;52.030;113.524;2023-05-10T01:04:08;56.05;;;28.05;;
69419;SDS011;56612;52.030;113.524;2023-05-10T01:07:14;55.05;;;28.13;;
69419;SDS011;56612;52.030;113.524;2023-05-10T01:10:17;57.72;;;27.08;;
69419;SDS011;56612;52.030;113.524;2023-05-10T01:13:33;51.53;;;27.40;;
69419;SDS011;56612;52.030;113.524;2023-05-10T01:16:40;51.73;;;24.27;;
69419;SDS011;56612;52.030;113.524;2023-05-10T01:19:44;56.75;;;29.45;;
69419;SDS011;56612;52.030;113.524;2023-05-10T01:26:25;61.60;;;30.30;;
69419;SDS011;56612;52.030;113.524;2023-05-10T01:36:55;51.85;;;26.80;;
69419;SDS011;56612;52.030;113.524;2023-05-10T01:40:17;37.83;;;20.92;;
69419;SDS011;56612;52.030;113.524;2023-05-10T01:43:30;35.85;;;20.23;;
69419;SDS011;56612;52.030;113.524;2023-05-10T01:46:40;32.80;;;18.70;;
69419;SDS011;56612;52.030;113.524;2023-05-10T01:49:49;29.90;;;18.37;;
69419;SDS011;56612;52.030;113.524;2023-05-10T01:52:55;29.15;;;18.85;;
69419;SDS011;56612;52.030;113.524;2023-05-10T01:56:01;30.80;;;18.23;;
69419;SDS011;56612;52.030;113.524;2023-05-10T01:59:08;28.13;;;18.15;;
69419;SDS011;56612;52.030;113.524;2023-05-10T02:02:19;28.80;;;17.07;;
69419;SDS011;56612;52.030;113.524;2023-05-10T02:05:24;32.17;;;18.87;;
69419;SDS011;56612;52.030;113.524;2023-05-10T02:08:30;29.33;;;21.25;;
69419;SDS011;56612;52.030;113.524;2023-05-10T02:11:37;27.88;;;18.38;;
69419;SDS011;56612;52.030;113.524;2023-05-10T02:14:41;27.27;;;18.55;;
69419;SDS011;56612;52.030;113.524;2023-05-10T02:17:46;27.40;;;18.50;;
69419;SDS011;56612;52.030;113.524;2023-05-10T02:20:51;25.47;;;18.03;;
69419;SDS011;56612;52.030;113.524;2023-05-10T02:23:56;24.88;;;17.98;;
69419;SDS011;56612;52.030;113.524;2023-05-10T02:27:03;23.92;;;18.27;;
69419;SDS011;56612;52.030;113.524;2023-05-10T02:30:07;27.30;;;17.65;;
69419;SDS011;56612;52.030;113.524;2023-05-10T02:33:13;23.47;;;17.67;;
69419;SDS011;56612;52.030;113.524;2023-05-10T02:36:17;25.03;;;17.37;;
69419;SDS011;56612;52.030;113.524;2023-05-10T02:39:24;31.27;;;19.48;;
69419;SDS011;56612;52.030;113.524;2023-05-10T02:42:29;29.58;;;18.92;;
69419;SDS011;56612;52.030;113.524;2023-05-10T02:45:38;26.13;;;17.42;;
69419;SDS011;56612;52.030;113.524;2023-05-10T02:48:43;26.77;;;17.47;;
69419;SDS011;56612;52.030;113.524;2023-05-10T02:51:49;23.77;;;17.23;;
69419;SDS011;56612;52.030;113.524;2023-05-10T02:54:58;24.23;;;16.73;;
69419;SDS011;56612;52.030;113.524;2023-05-10T02:58:06;23.92;;;16.92;;
69419;SDS011;56612;52.030;113.524;2023-05-10T03:01:10;22.85;;;17.17;;
69419;SDS011;56612;52.030;113.524;2023-05-10T03:04:14;23.53;;;18.23;;
69419;SDS011;56612;52.030;113.524;2023-05-10T03:07:18;26.33;;;16.90;;
69419;SDS011;56612;52.030;113.524;2023-05-10T03:10:27;21.17;;;17.23;;
69419;SDS011;56612;52.030;113.524;2023-05-10T03:13:35;21.88;;;16.92;;
69419;SDS011;56612;52.030;113.524;2023-05-10T03:16:48;24.92;;;17.25;;
69419;SDS011;56612;52.030;113.524;2023-05-10T03:20:03;23.23;;;16.93;;
69419;SDS011;56612;52.030;113.524;2023-05-10T03:23:20;24.43;;;17.67;;
69419;SDS011;56612;52.030;113.524;2023-05-10T03:26:27;23.98;;;17.65;;
69419;SDS011;56612;52.030;113.524;2023-05-10T03:29:46;24.33;;;19.08;;
69419;SDS011;56612;52.030;113.524;2023-05-10T03:32:52;20.85;;;16.67;;
69419;SDS011;56612;52.030;113.524;2023-05-10T03:35:56;18.70;;;16.70;;
69419;SDS011;56612;52.030;113.524;2023-05-10T03:39:00;22.57;;;17.60;;
69419;SDS011;56612;52.030;113.524;2023-05-10T03:42:03;25.73;;;16.67;;
69419;SDS011;56612;52.030;113.524;2023-05-10T03:45:07;23.40;;;16.90;;
69419;SDS011;56612;52.030;113.524;2023-05-10T03:48:11;21.98;;;18.23;;
69419;SDS011;56612;52.030;113.524;2023-05-10T03:51:17;19.90;;;17.03;;
69419;SDS011;56612;52.030;113.524;2023-05-10T03:54:21;20.20;;;16.70;;
69419;SDS011;56612;52.030;113.524;2023-05-10T03:57:25;19.45;;;16.38;;
69419;SDS011;56612;52.030;113.524;2023-05-10T04:00:28;21.23;;;16.48;;
69419;SDS011;56612;52.030;113.524;2023-05-10T04:03:33;20.40;;;16.67;;
69419;SDS011;56612;52.030;113.524;2023-05-10T04:06:39;19.80;;;16.60;;
69419;SDS011;56612;52.030;113.524;2023-05-10T04:09:43;25.23;;;16.97;;
69419;SDS011;56612;52.030;113.524;2023-05-10T04:12:47;20.80;;;16.05;;
69419;SDS011;56612;52.030;113.524;2023-05-10T04:15:51;22.08;;;15.30;;
69419;SDS011;56612;52.030;113.524;2023-05-10T04:18:55;20.75;;;15.25;;
69419;SDS011;56612;52.030;113.524;2023-05-10T04:21:59;20.60;;;16.23;;
69419;SDS011;56612;52.030;113.524;2023-05-10T04:25:03;21.17;;;16.87;;
69419;SDS011;56612;52.030;113.524;2023-05-10T04:28:07;21.27;;;16.52;;
69419;SDS011;56612;52.030;113.524;2023-05-10T04:31:12;34.83;;;16.88;;
69419;SDS011;56612;52.030;113.524;2023-05-10T04:34:15;36.97;;;17.95;;
69419;SDS011;56612;52.030;113.524;2023-05-10T04:37:19;21.67;;;14.27;;
69419;SDS011;56612;52.030;113.524;2023-05-10T04:40:24;18.87;;;14.13;;
69419;SDS011;56612;52.030;113.524;2023-05-10T04:43:29;15.50;;;13.90;;
69419;SDS011;56612;52.030;113.524;2023-05-10T04:46:32;17.13;;;14.50;;
69419;SDS011;56612;52.030;113.524;2023-05-10T04:49:36;19.70;;;14.73;;
69419;SDS011;56612;52.030;113.524;2023-05-10T04:52:40;20.63;;;15.83;;
69419;SDS011;56612;52.030;113.524;2023-05-10T04:55:45;23.70;;;15.43;;
69419;SDS011;56612;52.030;113.524;2023-05-10T04:58:49;18.38;;;15.10;;
69419;SDS011;56612;52.030;113.524;2023-05-10T05:01:53;13.77;;;11.43;;
69419;SDS011;56612;52.030;113.524;2023-05-10T05:04:57;16.67;;;10.90;;
69419;SDS011;56612;52.030;113.524;2023-05-10T05:08:02;13.30;;;9.50;;
69419;SDS011;56612;52.030;113.524;2023-05-10T05:11:05;9.93;;;8.30;;
69419;SDS011;56612;52.030;113.524;2023-05-10T05:14:09;11.95;;;8.40;;
69419;SDS011;56612;52.030;113.524;2023-05-10T05:17:12;12.15;;;8.75;;
69419;SDS011;56612;52.030;113.524;2023-05-10T05:20:16;14.68;;;8.32;;
69419;SDS011;56612;52.030;113.524;2023-05-10T05:23:22;12.10;;;8.43;;
69419;SDS011;56612;52.030;113.524;2023-05-10T05:26:28;12.50;;;7.53;;
69419;SDS011;56612;52.030;113.524;2023-05-10T05:29:31;10.68;;;7.97;;
69419;SDS011;56612;52.030;113.524;2023-05-10T05:32:36;10.70;;;7.45;;
69419;SDS011;56612;52.030;113.524;2023-05-10T05:35:39;10.30;;;7.53;;
69419;SDS011;56612;52.030;113.524;2023-05-10T05:38:43;11.70;;;7.03;;
69419;SDS011;56612;52.030;113.524;2023-05-10T05:41:47;13.77;;;7.70;;
69419;SDS011;56612;52.030;113.524;2023-05-10T05:44:51;13.05;;;7.78;;
69419;SDS011;56612;52.030;113.524;2023-05-10T05:47:55;12.68;;;7.53;;
69419;SDS011;56612;52.030;113.524;2023-05-10T05:50:59;10.95;;;7.68;;
69419;SDS011;56612;52.030;113.524;2023-05-10T05:54:07;10.13;;;7.70;;
69419;SDS011;56612;52.030;113.524;2023-05-10T05:57:11;15.57;;;7.50;;
69419;SDS011;56612;52.030;113.524;2023-05-10T06:00:16;10.10;;;7.05;;
69419;SDS011;56612;52.030;113.524;2023-05-10T06:03:19;11.50;;;6.88;;
69419;SDS011;56612;52.030;113.524;2023-05-10T06:06:23;11.73;;;7.25;;
69419;SDS011;56612;52.030;113.524;2023-05-10T06:09:26;14.53;;;6.80;;
69419;SDS011;56612;52.030;113.524;2023-05-10T06:12:30;10.20;;;6.70;;
69419;SDS011;56612;52.030;113.524;2023-05-10T06:15:34;9.68;;;6.13;;
69419;SDS011;56612;52.030;113.524;2023-05-10T06:18:38;12.40;;;6.40;;
69419;SDS011;56612;52.030;113.524;2023-05-10T06:21:42;10.13;;;6.68;;
69419;SDS011;56612;52.030;113.524;2023-05-10T06:24:45;12.93;;;6.60;;
69419;SDS011;56612;52.030;113.524;2023-05-10T06:27:49;10.20;;;7.00;;
69419;SDS011;56612;52.030;113.524;2023-05-10T06:30:55;11.65;;;6.93;;
69419;SDS011;56612;52.030;113.524;2023-05-10T06:33:59;12.60;;;7.15;;
69419;SDS011;56612;52.030;113.524;2023-05-10T06:37:03;10.32;;;6.82;;
69419;SDS011;56612;52.030;113.524;2023-05-10T06:40:07;12.37;;;7.73;;
69419;SDS011;56612;52.030;113.524;2023-05-10T06:43:12;12.87;;;7.30;;
69419;SDS011;56612;52.030;113.524;2023-05-10T06:46:16;14.27;;;7.70;;
69419;SDS011;56612;52.030;113.524;2023-05-10T06:49:19;16.65;;;6.97;;
69419;SDS011;56612;52.030;113.524;2023-05-10T06:52:23;10.75;;;7.15;;
69419;SDS011;56612;52.030;113.524;2023-05-10T06:55:26;14.93;;;7.87;;
69419;SDS011;56612;52.030;113.524;2023-05-10T06:58:30;16.73;;;9.37;;
69419;SDS011;56612;52.030;113.524;2023-05-10T07:01:35;14.05;;;8.15;;
69419;SDS011;56612;52.030;113.524;2023-05-10T07:04:39;16.42;;;8.65;;
69419;SDS011;56612;52.030;113.524;2023-05-10T07:07:43;11.70;;;7.85;;
69419;SDS011;56612;52.030;113.524;2023-05-10T07:10:47;19.20;;;8.73;;
69419;SDS011;56612;52.030;113.524;2023-05-10T07:13:51;11.87;;;7.97;;
69419;SDS011;56612;52.030;113.524;2023-05-10T07:16:55;13.05;;;8.25;;
69419;SDS011;56612;52.030;113.524;2023-05-10T07:19:59;11.65;;;8.27;;
69419;SDS011;56612;52.030;113.524;2023-05-10T07:23:03;15.80;;;9.50;;
69419;SDS011;56612;52.030;113.524;2023-05-10T07:26:07;21.30;;;8.20;;
69419;SDS011;56612;52.030;113.524;2023-05-10T07:29:11;14.97;;;7.47;;
69419;SDS011;56612;52.030;113.524;2023-05-10T07:32:15;11.93;;;8.27;;
69419;SDS011;56612;52.030;113.524;2023-05-10T07:35:19;12.27;;;8.00;;
69419;SDS011;56612;52.030;113.524;2023-05-10T07:38:22;13.32;;;8.32;;
69419;SDS011;56612;52.030;113.524;2023-05-10T07:41:27;12.70;;;8.10;;
69419;SDS011;56612;52.030;113.524;2023-05-10T07:44:30;17.70;;;8.57;;
69419;SDS011;56612;52.030;113.524;2023-05-10T07:47:34;18.60;;;8.88;;
69419;SDS011;56612;52.030;113.524;2023-05-10T07:50:38;14.60;;;8.05;;
69419;SDS011;56612;52.030;113.524;2023-05-10T07:53:41;15.38;;;7.43;;
69419;SDS011;56612;52.030;113.524;2023-05-10T07:56:45;13.03;;;7.70;;
69419;SDS011;56612;52.030;113.524;2023-05-10T07:59:50;13.33;;;7.63;;
69419;SDS011;56612;52.030;113.524;2023-05-10T08:02:54;13.35;;;8.55;;
69419;SDS011;56612;52.030;113.524;2023-05-10T08:05:58;18.33;;;7.65;;
69419;SDS011;56612;52.030;113.524;2023-05-10T08:09:02;22.92;;;9.30;;
69419;SDS011;56612;52.030;113.524;2023-05-10T08:12:08;21.07;;;8.37;;
69419;SDS011;56612;52.030;113.524;2023-05-10T08:15:12;18.10;;;8.37;;
69419;SDS011;56612;52.030;113.524;2023-05-10T08:18:16;19.00;;;8.10;;
69419;SDS011;56612;52.030;113.524;2023-05-10T08:21:22;14.18;;;8.57;;
69419;SDS011;56612;52.030;113.524;2023-05-10T08:24:26;13.30;;;7.60;;
69419;SDS011;56612;52.030;113.524;2023-05-10T08:27:30;14.10;;;8.60;;
69419;SDS011;56612;52.030;113.524;2023-05-10T08:30:33;16.83;;;8.70;;
69419;SDS011;56612;52.030;113.524;2023-05-10T08:33:36;18.23;;;8.27;;
69419;SDS011;56612;52.030;113.524;2023-05-10T08:36:41;11.52;;;7.70;;
69419;SDS011;56612;52.030;113.524;2023-05-10T08:39:45;16.35;;;8.48;;
69419;SDS011;56612;52.030;113.524;2023-05-10T08:42:51;13.57;;;7.90;;
69419;SDS011;56612;52.030;113.524;2023-05-10T08:46:00;14.77;;;7.50;;
69419;SDS011;56612;52.030;113.524;2023-05-10T08:49:08;16.23;;;7.75;;
69419;SDS011;56612;52.030;113.524;2023-05-10T08:52:16;12.75;;;7.60;;
69419;SDS011;56612;52.030;113.524;2023-05-10T08:55:21;12.20;;;7.68;;
69419;SDS011;56612;52.030;113.524;2023-05-10T08:58:27;13.30;;;7.80;;
69419;SDS011;56612;52.030;113.524;2023-05-10T09:01:31;14.70;;;7.70;;
69419;SDS011;56612;52.030;113.524;2023-05-10T09:04:35;18.35;;;8.52;;
69419;SDS011;56612;52.030;113.524;2023-05-10T09:07:40;11.30;;;7.20;;
69419;SDS011;56612;52.030;113.524;2023-05-10T09:10:43;14.52;;;7.53;;
69419;SDS011;56612;52.030;113.524;2023-05-10T09:13:50;14.03;;;7.33;;
69419;SDS011;56612;52.030;113.524;2023-05-10T09:16:55;15.10;;;7.40;;
69419;SDS011;56612;52.030;113.524;2023-05-10T09:20:00;12.23;;;7.35;;
69419;SDS011;56612;52.030;113.524;2023-05-10T09:23:05;14.80;;;7.03;;
69419;SDS011;56612;52.030;113.524;2023-05-10T09:26:10;17.58;;;7.05;;
69419;SDS011;56612;52.030;113.524;2023-05-10T09:29:13;13.43;;;6.63;;
69419;SDS011;56612;52.030;113.524;2023-05-10T09:32:19;13.37;;;6.33;;
69419;SDS011;56612;52.030;113.524;2023-05-10T09:35:24;10.38;;;6.30;;
69419;SDS011;56612;52.030;113.524;2023-05-10T09:38:44;14.23;;;6.75;;
69419;SDS011;56612;52.030;113.524;2023-05-10T09:41:52;14.00;;;4.88;;
69419;SDS011;56612;52.030;113.524;2023-05-10T09:45:00;15.77;;;6.03;;
69419;SDS011;56612;52.030;113.524;2023-05-10T09:48:05;9.43;;;4.37;;
69419;SDS011;56612;52.030;113.524;2023-05-10T09:51:09;15.38;;;4.85;;
69419;SDS011;56612;52.030;113.524;2023-05-10T09:54:16;23.02;;;4.97;;
69419;SDS011;56612;52.030;113.524;2023-05-10T09:57:21;29.25;;;5.28;;
69419;SDS011;56612;52.030;113.524;2023-05-10T10:00:27;14.23;;;4.53;;
69419;SDS011;56612;52.030;113.524;2023-05-10T10:03:32;10.53;;;4.10;;
69419;SDS011;56612;52.030;113.524;2023-05-10T10:06:36;11.95;;;4.60;;
69419;SDS011;56612;52.030;113.524;2023-05-10T10:09:44;9.10;;;4.30;;
69419;SDS011;56612;52.030;113.524;2023-05-10T10:12:53;10.80;;;3.92;;
69419;SDS011;56612;52.030;113.524;2023-05-10T10:15:58;13.93;;;4.40;;
69419;SDS011;56612;52.030;113.524;2023-05-10T10:19:02;10.20;;;5.17;;
69419;SDS011;56612;52.030;113.524;2023-05-10T10:22:06;10.10;;;4.63;;
69419;SDS011;56612;52.030;113.524;2023-05-10T10:25:10;15.00;;;5.32;;
69419;SDS011;56612;52.030;113.524;2023-05-10T10:34:54;12.00;;;5.33;;
69419;SDS011;56612;52.030;113.524;2023-05-10T10:37:59;12.80;;;5.30;;
69419;SDS011;56612;52.030;113.524;2023-05-10T10:41:10;11.50;;;5.30;;
69419;SDS011;56612;52.030;113.524;2023-05-10T10:47:42;11.63;;;4.50;;
69419;SDS011;56612;52.030;113.524;2023-05-10T10:50:46;10.10;;;5.07;;
69419;SDS011;56612;52.030;113.524;2023-05-10T10:53:52;16.95;;;5.15;;
69419;SDS011;56612;52.030;113.524;2023-05-10T11:03:33;9.73;;;4.33;;
69419;SDS011;56612;52.030;113.524;2023-05-10T11:06:37;9.67;;;4.57;;
69419;SDS011;56612;52.030;113.524;2023-05-10T11:09:42;10.30;;;4.22;;
69419;SDS011;56612;52.030;113.524;2023-05-10T11:12:52;9.57;;;4.00;;
69419;SDS011;56612;52.030;113.524;2023-05-10T11:16:10;12.95;;;4.53;;
69419;SDS011;56612;52.030;113.524;2023-05-10T11:19:21;11.53;;;4.87;;
69419;SDS011;56612;52.030;113.524;2023-05-10T11:22:30;12.87;;;5.37;;
69419;SDS011;56612;52.030;113.524;2023-05-10T11:25:54;10.98;;;4.63;;
69419;SDS011;56612;52.030;113.524;2023-05-10T11:28:58;12.35;;;6.20;;
69419;SDS011;56612;52.030;113.524;2023-05-10T11:32:04;9.38;;;4.25;;
69419;SDS011;56612;52.030;113.524;2023-05-10T11:35:10;10.03;;;4.93;;
69419;SDS011;56612;52.030;113.524;2023-05-10T11:38:15;13.23;;;5.13;;
69419;SDS011;56612;52.030;113.524;2023-05-10T11:41:19;9.70;;;4.45;;
69419;SDS011;56612;52.030;113.524;2023-05-10T11:44:32;10.93;;;4.15;;
69419;SDS011;56612;52.030;113.524;2023-05-10T11:47:36;8.43;;;4.50;;
69419;SDS011;56612;52.030;113.524;2023-05-10T11:50:43;10.30;;;5.00;;
69419;SDS011;56612;52.030;113.524;2023-05-10T11:53:49;9.93;;;4.90;;
69419;SDS011;56612;52.030;113.524;2023-05-10T11:56:56;11.48;;;5.13;;
69419;SDS011;56612;52.030;113.524;2023-05-10T12:00:00;9.32;;;4.10;;
69419;SDS011;56612;52.030;113.524;2023-05-10T12:03:08;11.82;;;4.93;;
69419;SDS011;56612;52.030;113.524;2023-05-10T12:06:13;13.77;;;4.40;;
69419;SDS011;56612;52.030;113.524;2023-05-10T12:09:19;9.00;;;4.90;;
69419;SDS011;56612;52.030;113.524;2023-05-10T12:12:42;8.48;;;4.85;;
69419;SDS011;56612;52.030;113.524;2023-05-10T12:15:51;8.52;;;4.68;;
69419;SDS011;56612;52.030;113.524;2023-05-10T12:18:57;13.27;;;5.72;;
69419;SDS011;56612;52.030;113.524;2023-05-10T12:22:04;14.43;;;4.87;;
69419;SDS011;56612;52.030;113.524;2023-05-10T12:25:08;10.73;;;5.33;;
69419;SDS011;56612;52.030;113.524;2023-05-10T12:28:12;23.33;;;11.60;;
69419;SDS011;56612;52.030;113.524;2023-05-10T12:31:16;17.45;;;9.18;;
69419;SDS011;56612;52.030;113.524;2023-05-10T12:34:33;13.63;;;5.90;;
69419;SDS011;56612;52.030;113.524;2023-05-10T12:37:38;11.93;;;5.77;;
69419;SDS011;56612;52.030;113.524;2023-05-10T12:40:41;13.63;;;6.87;;
69419;SDS011;56612;52.030;113.524;2023-05-10T12:43:45;12.68;;;6.43;;
69419;SDS011;56612;52.030;113.524;2023-05-10T12:46:49;14.85;;;6.55;;
69419;SDS011;56612;52.030;113.524;2023-05-10T12:49:53;13.43;;;6.20;;
69419;SDS011;56612;52.030;113.524;2023-05-10T12:52:57;15.47;;;6.90;;
69419;SDS011;56612;52.030;113.524;2023-05-10T12:56:01;13.63;;;6.43;;
69419;SDS011;56612;52.030;113.524;2023-05-10T12:59:04;36.17;;;19.17;;
69419;SDS011;56612;52.030;113.524;2023-05-10T13:02:08;17.02;;;7.85;;
69419;SDS011;56612;52.030;113.524;2023-05-10T13:05:12;21.90;;;10.80;;
69419;SDS011;56612;52.030;113.524;2023-05-10T13:08:15;124.87;;;59.90;;
69419;SDS011;56612;52.030;113.524;2023-05-10T13:11:19;18.97;;;8.83;;
69419;SDS011;56612;52.030;113.524;2023-05-10T13:14:24;22.90;;;9.45;;
69419;SDS011;56612;52.030;113.524;2023-05-10T13:17:28;21.38;;;8.48;;
69419;SDS011;56612;52.030;113.524;2023-05-10T13:20:34;27.77;;;8.38;;
69419;SDS011;56612;52.030;113.524;2023-05-10T13:23:39;21.57;;;7.30;;
69419;SDS011;56612;52.030;113.524;2023-05-10T13:26:43;10.80;;;5.77;;
69419;SDS011;56612;52.030;113.524;2023-05-10T13:29:46;14.00;;;7.03;;
69419;SDS011;56612;52.030;113.524;2023-05-10T13:32:49;14.48;;;5.22;;
69419;SDS011;56612;52.030;113.524;2023-05-10T13:35:53;10.20;;;4.60;;
69419;SDS011;56612;52.030;113.524;2023-05-10T13:38:57;10.07;;;4.10;;
69419;SDS011;56612;52.030;113.524;2023-05-10T13:42:01;7.93;;;4.10;;
69419;SDS011;56612;52.030;113.524;2023-05-10T13:45:05;12.43;;;4.50;;
69419;SDS011;56612;52.030;113.524;2023-05-10T13:48:09;11.55;;;4.40;;
69419;SDS011;56612;52.030;113.524;2023-05-10T13:51:12;10.55;;;4.38;;
69419;SDS011;56612;52.030;113.524;2023-05-10T13:54:16;7.63;;;4.20;;
69419;SDS011;56612;52.030;113.524;2023-05-10T13:57:22;10.47;;;4.50;;
69419;SDS011;56612;52.030;113.524;2023-05-10T14:00:26;8.52;;;4.68;;
69419;SDS011;56612;52.030;113.524;2023-05-10T14:03:30;10.23;;;4.43;;
69419;SDS011;56612;52.030;113.524;2023-05-10T14:06:34;11.10;;;4.88;;
69419;SDS011;56612;52.030;113.524;2023-05-10T14:09:39;12.97;;;4.43;;
69419;SDS011;56612;52.030;113.524;2023-05-10T14:12:42;8.73;;;4.83;;
69419;SDS011;56612;52.030;113.524;2023-05-10T14:15:45;9.07;;;4.80;;
69419;SDS011;56612;52.030;113.524;2023-05-10T14:18:48;9.10;;;5.10;;
69419;SDS011;56612;52.030;113.524;2023-05-10T14:21:52;11.57;;;4.75;;
69419;SDS011;56612;52.030;113.524;2023-05-10T14:24:55;10.43;;;4.20;;
69419;SDS011;56612;52.030;113.524;2023-05-10T14:27:58;8.07;;;3.93;;
69419;SDS011;56612;52.030;113.524;2023-05-10T14:31:01;9.38;;;4.65;;
69419;SDS011;56612;52.030;113.524;2023-05-10T14:34:05;8.43;;;4.65;;
69419;SDS011;56612;52.030;113.524;2023-05-10T14:37:09;7.57;;;4.50;;
69419;SDS011;56612;52.030;113.524;2023-05-10T14:40:14;11.70;;;6.73;;
69419;SDS011;56612;52.030;113.524;2023-05-10T14:43:19;12.37;;;3.93;;
69419;SDS011;56612;52.030;113.524;2023-05-10T14:46:23;11.23;;;5.00;;
69419;SDS011;56612;52.030;113.524;2023-05-10T14:49:27;10.82;;;4.60;;
69419;SDS011;56612;52.030;113.524;2023-05-10T14:52:32;13.50;;;4.55;;
69419;SDS011;56612;52.030;113.524;2023-05-10T14:55:35;10.03;;;4.60;;
69419;SDS011;56612;52.030;113.524;2023-05-10T14:58:39;18.30;;;4.90;;
69419;SDS011;56612;52.030;113.524;2023-05-10T15:01:43;9.45;;;4.65;;
69419;SDS011;56612;52.030;113.524;2023-05-10T15:04:47;11.15;;;5.07;;
69419;SDS011;56612;52.030;113.524;2023-05-10T15:07:52;8.07;;;4.15;;
69419;SDS011;56612;52.030;113.524;2023-05-10T15:10:55;8.37;;;3.93;;
69419;SDS011;56612;52.030;113.524;2023-05-10T15:13:59;8.80;;;3.97;;
69419;SDS011;56612;52.030;113.524;2023-05-10T15:17:06;11.50;;;5.57;;
69419;SDS011;56612;52.030;113.524;2023-05-10T15:20:09;9.82;;;4.40;;
69419;SDS011;56612;52.030;113.524;2023-05-10T15:23:13;8.68;;;4.22;;
69419;SDS011;56612;52.030;113.524;2023-05-10T15:26:16;8.73;;;4.03;;
69419;SDS011;56612;52.030;113.524;2023-05-10T15:29:20;8.63;;;4.37;;
69419;SDS011;56612;52.030;113.524;2023-05-10T15:32:23;10.98;;;4.10;;
69419;SDS011;56612;52.030;113.524;2023-05-10T15:35:27;7.68;;;3.63;;
69419;SDS011;56612;52.030;113.524;2023-05-10T15:38:30;8.27;;;3.97;;
69419;SDS011;56612;52.030;113.524;2023-05-10T15:41:34;8.97;;;4.00;;
69419;SDS011;56612;52.030;113.524;2023-05-10T15:44:39;9.47;;;3.87;;
69419;SDS011;56612;52.030;113.524;2023-05-10T15:47:42;8.35;;;4.13;;
69419;SDS011;56612;52.030;113.524;2023-05-10T15:50:46;13.40;;;4.05;;
69419;SDS011;56612;52.030;113.524;2023-05-10T15:53:49;11.63;;;4.30;;
69419;SDS011;56612;52.030;113.524;2023-05-10T15:57:08;13.63;;;4.20;;
69419;SDS011;56612;52.030;113.524;2023-05-10T16:00:11;11.43;;;4.33;;
69419;SDS011;56612;52.030;113.524;2023-05-10T16:03:14;9.10;;;4.10;;
69419;SDS011;56612;52.030;113.524;2023-05-10T16:06:19;7.90;;;4.07;;
69419;SDS011;56612;52.030;113.524;2023-05-10T16:09:22;8.18;;;4.40;;
69419;SDS011;56612;52.030;113.524;2023-05-10T16:12:26;7.00;;;3.83;;
69419;SDS011;56612;52.030;113.524;2023-05-10T16:15:30;8.53;;;3.83;;
69419;SDS011;56612;52.030;113.524;2023-05-10T16:18:33;8.88;;;4.20;;
69419;SDS011;56612;52.030;113.524;2023-05-10T16:21:37;9.73;;;4.28;;
69419;SDS011;56612;52.030;113.524;2023-05-10T16:24:40;10.30;;;4.13;;
69419;SDS011;56612;52.030;113.524;2023-05-10T16:27:43;8.03;;;3.80;;
69419;SDS011;56612;52.030;113.524;2023-05-10T16:30:47;8.37;;;3.03;;
69419;SDS011;56612;52.030;113.524;2023-05-10T16:33:50;7.80;;;3.85;;
69419;SDS011;56612;52.030;113.524;2023-05-10T16:36:53;10.85;;;4.05;;
69419;SDS011;56612;52.030;113.524;2023-05-10T16:39:57;9.05;;;3.80;;
69419;SDS011;56612;52.030;113.524;2023-05-10T16:43:01;10.13;;;4.30;;
69419;SDS011;56612;52.030;113.524;2023-05-10T16:46:14;10.23;;;3.70;;
69419;SDS011;56612;52.030;113.524;2023-05-10T16:49:17;14.10;;;4.07;;
69419;SDS011;56612;52.030;113.524;2023-05-10T16:52:21;7.95;;;3.40;;
69419;SDS011;56612;52.030;113.524;2023-05-10T16:55:26;7.63;;;3.83;;
69419;SDS011;56612;52.030;113.524;2023-05-10T16:58:29;8.23;;;3.67;;
69419;SDS011;56612;52.030;113.524;2023-05-10T17:01:33;9.20;;;3.80;;
69419;SDS011;56612;52.030;113.524;2023-05-10T17:04:36;10.48;;;3.95;;
69419;SDS011;56612;52.030;113.524;2023-05-10T17:07:40;10.43;;;4.20;;
69419;SDS011;56612;52.030;113.524;2023-05-10T17:10:44;7.80;;;3.75;;
69419;SDS011;56612;52.030;113.524;2023-05-10T17:13:48;10.27;;;4.13;;
69419;SDS011;56612;52.030;113.524;2023-05-10T17:16:51;8.63;;;4.00;;
69419;SDS011;56612;52.030;113.524;2023-05-10T17:19:56;10.15;;;4.13;;
69419;SDS011;56612;52.030;113.524;2023-05-10T17:23:03;13.82;;;4.80;;
69419;SDS011;56612;52.030;113.524;2023-05-10T17:26:06;9.63;;;3.92;;
69419;SDS011;56612;52.030;113.524;2023-05-10T17:29:09;11.10;;;3.73;;
69419;SDS011;56612;52.030;113.524;2023-05-10T17:32:14;11.10;;;4.27;;
69419;SDS011;56612;52.030;113.524;2023-05-10T17:35:18;7.75;;;4.00;;
69419;SDS011;56612;52.030;113.524;2023-05-10T17:38:23;8.48;;;3.90;;
69419;SDS011;56612;52.030;113.524;2023-05-10T17:41:27;9.95;;;4.13;;
69419;SDS011;56612;52.030;113.524;2023-05-10T17:44:31;8.73;;;4.00;;
69419;SDS011;56612;52.030;113.524;2023-05-10T17:47:34;8.83;;;4.60;;
69419;SDS011;56612;52.030;113.524;2023-05-10T17:50:40;9.93;;;4.00;;
69419;SDS011;56612;52.030;113.524;2023-05-10T17:53:45;7.10;;;3.53;;
69419;SDS011;56612;52.030;113.524;2023-05-10T17:56:48;9.32;;;3.67;;
69419;SDS011;56612;52.030;113.524;2023-05-10T17:59:51;9.10;;;3.40;;
69419;SDS011;56612;52.030;113.524;2023-05-10T18:02:55;6.50;;;3.57;;
69419;SDS011;56612;52.030;113.524;2023-05-10T18:05:58;7.35;;;3.40;;
69419;SDS011;56612;52.030;113.524;2023-05-10T18:09:02;7.30;;;3.80;;
69419;SDS011;56612;52.030;113.524;2023-05-10T18:12:09;9.60;;;3.95;;
69419;SDS011;56612;52.030;113.524;2023-05-10T18:15:12;12.60;;;4.13;;